createdAt,value
2019-01-30T00:01:07.402Z,10.03
2019-01-30T00:04:04.087Z,8.87
2019-01-30T00:07:00.959Z,7.83
2019-01-30T00:09:56.259Z,7.67
2019-01-30T00:12:53.756Z,10.30
2019-01-30T00:15:56.040Z,6.80
2019-01-30T00:18:51.018Z,8.83
2019-01-30T00:21:46.790Z,8.07
2019-01-30T00:24:43.303Z,7.17
2019-01-30T00:27:38.632Z,8.90
2019-01-30T00:30:35.208Z,8.63
2019-01-30T00:33:31.900Z,9.83
2019-01-30T00:36:27.598Z,10.43
2019-01-30T00:39:24.056Z,11.67
2019-01-30T00:42:19.792Z,8.20
2019-01-30T00:45:17.710Z,8.63
2019-01-30T00:48:13.541Z,11.37
2019-01-30T00:51:08.900Z,8.40
2019-01-30T00:54:06.493Z,7.40
2019-01-30T00:57:02.735Z,7.90
2019-01-30T00:59:58.767Z,6.63
2019-01-30T01:02:54.498Z,7.50
2019-01-30T01:05:53.200Z,8.27
2019-01-30T01:08:52.236Z,8.98
2019-01-30T01:11:47.470Z,9.80
2019-01-30T01:14:45.289Z,14.93
2019-01-30T01:17:41.862Z,8.77
2019-01-30T01:20:38.444Z,10.10
2019-01-30T01:23:33.937Z,12.23
2019-01-30T01:26:32.214Z,6.40
2019-01-30T01:29:27.461Z,9.17
2019-01-30T01:32:24.220Z,8.10
2019-01-30T01:35:19.876Z,7.43
2019-01-30T01:38:16.639Z,9.67
2019-01-30T01:41:13.451Z,10.93
2019-01-30T01:44:09.095Z,12.47
2019-01-30T01:47:07.783Z,11.33
2019-01-30T01:50:03.294Z,8.93
2019-01-30T01:52:59.171Z,6.33
2019-01-30T01:55:56.001Z,7.23
2019-01-30T01:58:53.441Z,8.53
2019-01-30T02:01:49.159Z,9.43
2019-01-30T02:04:45.699Z,7.67
2019-01-30T02:07:42.146Z,8.90
2019-01-30T02:10:38.573Z,6.20
2019-01-30T02:13:38.714Z,9.87
2019-01-30T02:16:41.412Z,6.13
2019-01-30T02:19:38.191Z,9.97
2019-01-30T02:22:34.665Z,6.20
2019-01-30T02:25:31.411Z,7.20
2019-01-30T02:28:30.533Z,8.50
2019-01-30T02:31:26.185Z,6.70
2019-01-30T02:34:22.825Z,9.23
2019-01-30T02:37:20.487Z,11.80
2019-01-30T02:40:17.032Z,8.97
2019-01-30T02:43:12.401Z,7.60
2019-01-30T02:46:09.182Z,7.00
2019-01-30T02:49:05.843Z,8.60
2019-01-30T02:52:00.642Z,10.50
2019-01-30T02:54:57.995Z,7.93
2019-01-30T02:58:00.876Z,8.70
2019-01-30T03:01:01.431Z,7.50
2019-01-30T03:03:58.142Z,5.77
2019-01-30T03:06:53.616Z,5.67
2019-01-30T03:09:50.147Z,9.17
2019-01-30T03:12:45.706Z,7.17
2019-01-30T03:15:42.223Z,8.60
2019-01-30T03:18:40.088Z,9.78
2019-01-30T03:21:39.523Z,8.95
2019-01-30T03:24:35.989Z,9.90
2019-01-30T03:27:30.882Z,12.00
2019-01-30T03:30:42.067Z,10.03
2019-01-30T03:33:37.768Z,10.07
2019-01-30T03:36:34.031Z,9.97
2019-01-30T03:39:30.049Z,8.27
2019-01-30T03:42:26.467Z,8.20
2019-01-30T03:45:21.953Z,11.00
2019-01-30T03:48:24.663Z,8.83
2019-01-30T03:51:21.210Z,7.37
2019-01-30T03:54:16.887Z,7.10
2019-01-30T03:57:14.662Z,9.27
2019-01-30T04:00:11.137Z,4.97
2019-01-30T04:03:07.898Z,6.53
2019-01-30T04:06:03.237Z,9.63
2019-01-30T04:09:00.386Z,6.67
2019-01-30T04:11:55.901Z,6.37
2019-01-30T04:14:52.336Z,5.78
2019-01-30T04:17:49.061Z,7.13
2019-01-30T04:20:45.616Z,6.37
2019-01-30T04:23:43.032Z,6.67
2019-01-30T04:26:39.425Z,6.12
2019-01-30T04:29:37.240Z,7.97
2019-01-30T04:32:32.741Z,5.33
2019-01-30T04:35:29.023Z,7.83
2019-01-30T04:38:24.319Z,8.40
2019-01-30T04:41:20.800Z,6.80
2019-01-30T04:44:16.513Z,8.57
2019-01-30T04:47:13.063Z,5.80
2019-01-30T04:50:10.051Z,7.07
2019-01-30T04:53:05.638Z,9.53
2019-01-30T04:56:03.916Z,7.83
2019-01-30T04:58:59.685Z,9.23
2019-01-30T05:01:57.416Z,7.70
2019-01-30T05:04:53.169Z,8.00
2019-01-30T05:07:53.796Z,8.50
2019-01-30T05:10:50.431Z,9.30
2019-01-30T05:13:46.884Z,7.53
2019-01-30T05:16:43.455Z,7.30
2019-01-30T05:19:39.965Z,7.75
2019-01-30T05:22:37.819Z,7.73
2019-01-30T05:25:32.523Z,8.07
2019-01-30T05:28:29.218Z,10.50
2019-01-30T05:31:26.089Z,7.90
2019-01-30T05:34:23.787Z,6.37
2019-01-30T05:37:19.001Z,6.40
2019-01-30T05:40:16.448Z,8.97
2019-01-30T05:43:13.076Z,7.07
2019-01-30T05:46:08.357Z,7.77
2019-01-30T05:49:04.767Z,7.47
2019-01-30T05:51:59.239Z,7.40
2019-01-30T05:54:55.799Z,7.57
2019-01-30T05:57:52.382Z,8.23
2019-01-30T06:00:56.008Z,6.08
2019-01-30T06:03:52.700Z,9.15
2019-01-30T06:06:49.236Z,12.20
2019-01-30T06:09:44.678Z,7.90
2019-01-30T06:12:41.223Z,7.92
2019-01-30T06:15:36.925Z,8.00
2019-01-30T06:18:37.165Z,10.03
2019-01-30T06:21:34.182Z,9.77
2019-01-30T06:24:30.842Z,8.43
2019-01-30T06:27:27.493Z,9.10
2019-01-30T06:30:30.121Z,8.93
2019-01-30T06:33:32.821Z,9.50
2019-01-30T06:36:29.557Z,9.50
2019-01-30T06:39:25.195Z,8.30
2019-01-30T06:42:21.729Z,10.00
2019-01-30T06:45:17.345Z,14.20
2019-01-30T06:48:14.550Z,9.37
2019-01-30T06:51:12.269Z,10.30
2019-01-30T06:54:07.807Z,10.83
2019-01-30T06:57:03.506Z,10.33
2019-01-30T06:59:59.262Z,10.20
2019-01-30T07:02:55.826Z,14.50
2019-01-30T07:05:51.510Z,13.62
2019-01-30T07:08:48.058Z,13.57
2019-01-30T07:11:44.543Z,16.70
2019-01-30T07:14:40.088Z,12.80
2019-01-30T07:17:35.581Z,14.80
2019-01-30T07:20:31.379Z,12.33
2019-01-30T07:23:28.079Z,19.30
2019-01-30T07:26:24.642Z,13.53
2019-01-30T07:29:21.391Z,13.80
2019-01-30T07:32:17.887Z,12.00
2019-01-30T07:35:15.084Z,14.13
2019-01-30T07:38:10.587Z,12.47
2019-01-30T07:41:06.767Z,12.87
2019-01-30T07:44:02.867Z,9.23
2019-01-30T07:46:58.557Z,10.30
2019-01-30T07:49:56.106Z,10.60
2019-01-30T07:52:53.417Z,12.17
2019-01-30T07:55:50.014Z,12.97
2019-01-30T07:58:46.595Z,13.17
2019-01-30T08:01:43.364Z,18.83
2019-01-30T08:04:40.162Z,18.80
2019-01-30T08:07:36.030Z,17.60
2019-01-30T08:10:32.626Z,9.70
2019-01-30T08:13:30.192Z,12.93
2019-01-30T08:16:26.716Z,9.20
2019-01-30T08:19:23.224Z,12.17
2019-01-30T08:22:20.433Z,9.80
2019-01-30T08:25:16.398Z,12.80
2019-01-30T08:28:15.911Z,11.23
2019-01-30T08:31:09.272Z,7.17
2019-01-30T08:34:06.434Z,8.85
2019-01-30T08:37:01.968Z,12.83
2019-01-30T08:39:58.588Z,10.33
2019-01-30T08:42:57.142Z,8.23
2019-01-30T08:45:59.500Z,17.03
2019-01-30T08:49:03.180Z,10.90
2019-01-30T08:51:58.671Z,9.23
2019-01-30T08:54:55.163Z,14.67
2019-01-30T08:57:57.846Z,14.13
2019-01-30T09:00:54.594Z,12.82
2019-01-30T09:03:52.130Z,9.27
2019-01-30T09:06:52.097Z,8.53
2019-01-30T09:09:48.610Z,8.07
2019-01-30T09:12:45.346Z,9.80
2019-01-30T09:15:42.191Z,11.63
2019-01-30T09:18:38.736Z,9.47
2019-01-30T09:21:35.073Z,15.53
2019-01-30T09:24:32.840Z,22.60
2019-01-30T09:27:30.519Z,20.03
2019-01-30T09:30:34.566Z,19.07
2019-01-30T09:33:32.428Z,20.87
2019-01-30T09:36:29.108Z,13.45
2019-01-30T09:39:24.624Z,13.47
2019-01-30T09:42:21.381Z,10.60
2019-01-30T09:45:17.260Z,6.45
2019-01-30T09:48:13.869Z,7.10
2019-01-30T09:51:09.236Z,9.63
2019-01-30T09:54:06.266Z,8.47
2019-01-30T09:57:01.785Z,13.87
2019-01-30T09:59:58.325Z,15.60
2019-01-30T10:02:54.847Z,17.00
2019-01-30T10:05:52.444Z,11.13
2019-01-30T10:08:49.087Z,22.00
2019-01-30T10:11:44.360Z,10.60
2019-01-30T10:14:41.800Z,16.93
2019-01-30T10:17:37.284Z,18.95
2019-01-30T10:20:37.761Z,6.40
2019-01-30T10:23:34.025Z,8.07
2019-01-30T10:26:30.547Z,10.10
2019-01-30T10:29:29.828Z,9.98
2019-01-30T10:32:26.692Z,10.03
2019-01-30T10:35:24.202Z,8.53
2019-01-30T10:38:23.820Z,8.50
2019-01-30T10:41:20.324Z,11.90
2019-01-30T10:44:17.105Z,12.00
2019-01-30T10:47:13.058Z,11.57
2019-01-30T10:50:08.803Z,7.83
2019-01-30T10:53:06.383Z,11.30
2019-01-30T10:56:04.658Z,12.90
2019-01-30T10:59:00.425Z,16.83
2019-01-30T11:01:56.991Z,10.90
2019-01-30T11:04:53.643Z,8.97
2019-01-30T11:07:50.478Z,5.90
2019-01-30T11:10:46.185Z,10.67
2019-01-30T11:13:42.773Z,9.40
2019-01-30T11:16:39.345Z,9.80
2019-01-30T11:19:35.616Z,8.70
2019-01-30T11:22:31.971Z,9.23
2019-01-30T11:25:30.230Z,7.87
2019-01-30T11:28:27.945Z,10.50
2019-01-30T11:31:24.671Z,13.37
2019-01-30T11:34:40.906Z,8.10
2019-01-30T11:37:37.844Z,9.63
2019-01-30T11:40:33.242Z,8.57
2019-01-30T11:43:29.954Z,9.27
2019-01-30T11:46:25.593Z,12.97
2019-01-30T11:49:22.077Z,11.50
2019-01-30T11:52:17.723Z,8.57
2019-01-30T11:55:15.462Z,9.58
2019-01-30T11:58:11.272Z,11.40
2019-01-30T12:01:10.808Z,10.93
2019-01-30T12:04:17.719Z,10.78
2019-01-30T12:07:06.979Z,10.53
2019-01-30T12:10:08.400Z,14.87
2019-01-30T12:13:15.011Z,8.33
2019-01-30T12:16:18.018Z,11.83
2019-01-30T12:19:22.780Z,10.27
2019-01-30T12:22:18.228Z,12.23
2019-01-30T12:25:15.839Z,10.20
2019-01-30T12:28:23.768Z,9.00
2019-01-30T12:31:27.660Z,12.90
2019-01-30T12:34:28.325Z,9.60
2019-01-30T12:37:20.665Z,8.27
2019-01-30T12:40:17.397Z,10.10
2019-01-30T12:43:12.886Z,8.33
2019-01-30T12:46:10.403Z,8.87
2019-01-30T12:49:05.269Z,15.30
2019-01-30T12:52:01.945Z,13.47
2019-01-30T12:54:58.626Z,12.80
2019-01-30T12:57:55.422Z,14.25
2019-01-30T13:00:52.149Z,12.13
2019-01-30T13:03:59.971Z,12.40
2019-01-30T13:07:06.054Z,9.90
2019-01-30T13:10:01.592Z,13.90
2019-01-30T13:12:58.335Z,11.63
2019-01-30T13:15:54.057Z,12.20
2019-01-30T13:18:52.575Z,11.57
2019-01-30T13:21:48.082Z,18.20
2019-01-30T13:24:44.590Z,14.75
2019-01-30T13:27:41.544Z,15.87
2019-01-30T13:30:43.440Z,11.50
2019-01-30T13:33:36.514Z,20.83
2019-01-30T13:36:34.097Z,12.83
2019-01-30T13:39:31.580Z,12.63
2019-01-30T13:42:29.033Z,10.27
2019-01-30T13:45:25.712Z,22.53
2019-01-30T13:48:23.861Z,12.87
2019-01-30T13:51:24.623Z,11.77
2019-01-30T13:54:23.525Z,12.90
2019-01-30T13:57:21.259Z,14.53
2019-01-30T14:00:16.942Z,21.67
2019-01-30T14:03:13.691Z,8.83
2019-01-30T14:06:09.262Z,13.53
2019-01-30T14:09:05.389Z,14.20
2019-01-30T14:12:07.155Z,12.93
2019-01-30T14:15:02.968Z,13.30
2019-01-30T14:18:01.396Z,11.97
2019-01-30T14:20:56.895Z,12.50
2019-01-30T14:23:53.675Z,15.53
2019-01-30T14:26:50.207Z,13.00
2019-01-30T14:29:46.770Z,12.20
2019-01-30T14:32:43.576Z,13.07
2019-01-30T14:35:38.847Z,13.73
2019-01-30T14:38:36.462Z,14.60
2019-01-30T14:41:31.981Z,13.03
2019-01-30T14:44:28.700Z,16.73
2019-01-30T14:47:26.165Z,26.40
2019-01-30T14:50:29.284Z,17.30
2019-01-30T14:53:25.789Z,14.68
2019-01-30T14:56:22.369Z,16.77
2019-01-30T14:59:19.074Z,19.40
2019-01-30T15:02:14.792Z,14.63
2019-01-30T15:05:21.449Z,23.85
2019-01-30T15:08:07.204Z,16.63
2019-01-30T15:11:03.551Z,14.97
2019-01-30T15:14:01.171Z,17.30
2019-01-30T15:17:00.849Z,15.07
2019-01-30T15:19:58.620Z,10.53
2019-01-30T15:22:55.150Z,13.97
2019-01-30T15:25:51.855Z,11.10
2019-01-30T15:28:48.317Z,13.10
2019-01-30T15:31:51.945Z,13.47
2019-01-30T15:34:54.815Z,12.53
2019-01-30T15:37:51.565Z,11.33
2019-01-30T15:40:48.717Z,9.80
2019-01-30T15:43:43.444Z,8.73
2019-01-30T15:46:39.485Z,9.63
2019-01-30T15:49:36.250Z,6.83
2019-01-30T15:52:40.534Z,7.37
2019-01-30T15:55:36.674Z,7.57
2019-01-30T15:58:33.439Z,9.10
2019-01-30T16:01:36.369Z,8.63
2019-01-30T16:04:31.974Z,7.60
2019-01-30T16:07:28.703Z,14.47
2019-01-30T16:10:24.286Z,8.70
2019-01-30T16:13:20.988Z,8.00
2019-01-30T16:16:18.947Z,6.50
2019-01-30T16:19:16.535Z,7.63
2019-01-30T16:22:12.924Z,5.40
2019-01-30T16:25:09.592Z,6.45
2019-01-30T16:28:05.245Z,2.97
2019-01-30T16:31:00.901Z,2.15
2019-01-30T16:33:57.409Z,1.87
2019-01-30T16:36:57.059Z,2.30
2019-01-30T16:39:53.753Z,2.00
2019-01-30T16:42:50.335Z,1.67
2019-01-30T16:45:46.804Z,4.45
2019-01-30T16:51:01.324Z,1.00
2019-01-30T16:53:31.522Z,3.47
2019-01-30T16:56:01.825Z,1.43
2019-01-30T16:58:33.727Z,0.87
2019-01-30T17:01:04.353Z,1.03
2019-01-30T17:03:35.348Z,2.80
2019-01-30T17:06:07.809Z,2.87
2019-01-30T17:08:38.288Z,2.93
2019-01-30T17:11:08.923Z,2.13
2019-01-30T17:13:39.141Z,5.20
2019-01-30T17:16:09.735Z,1.30
2019-01-30T17:18:40.868Z,7.20
2019-01-30T17:21:11.936Z,1.60
2019-01-30T17:23:42.537Z,2.30
2019-01-30T17:26:12.817Z,1.73
2019-01-30T17:28:47.607Z,1.95
2019-01-30T17:31:22.233Z,2.63
2019-01-30T17:33:52.403Z,1.50
2019-01-30T17:36:22.632Z,1.83
2019-01-30T17:38:53.460Z,1.98
2019-01-30T17:41:23.673Z,1.47
2019-01-30T17:43:54.097Z,1.57
2019-01-30T17:46:24.253Z,0.80
2019-01-30T17:48:54.542Z,1.15
2019-01-30T17:51:24.729Z,1.90
2019-01-30T17:53:55.007Z,1.70
2019-01-30T17:56:25.291Z,4.93
2019-01-30T17:58:55.521Z,2.70
2019-01-30T18:01:27.726Z,0.90
2019-01-30T18:03:58.431Z,2.83
2019-01-30T18:06:30.114Z,1.70
2019-01-30T18:09:01.537Z,1.30
2019-01-30T18:11:31.921Z,1.23
2019-01-30T18:14:03.651Z,1.65
2019-01-30T18:16:35.029Z,4.17
2019-01-30T18:19:05.507Z,1.83
2019-01-30T18:21:35.984Z,1.50
2019-01-30T18:24:06.143Z,1.20
2019-01-30T18:26:38.070Z,1.40
2019-01-30T18:29:08.294Z,1.20
2019-01-30T18:31:38.477Z,1.43
2019-01-30T18:34:09.528Z,1.80
2019-01-30T18:36:41.093Z,1.63
2019-01-30T18:39:11.645Z,1.43
2019-01-30T18:41:41.894Z,2.13
2019-01-30T18:44:12.161Z,7.45
2019-01-30T18:46:42.325Z,1.07
2019-01-30T18:49:12.607Z,1.77
2019-01-30T18:51:42.800Z,2.20
2019-01-30T18:54:13.103Z,4.07
2019-01-30T18:56:43.287Z,3.00
2019-01-30T18:59:13.567Z,1.30
2019-01-30T19:01:44.632Z,7.90
2019-01-30T19:04:14.987Z,1.20
2019-01-30T19:06:51.968Z,1.12
2019-01-30T19:09:17.291Z,1.40
2019-01-30T19:11:47.602Z,2.30
2019-01-30T19:14:17.845Z,1.30
2019-01-30T19:16:48.960Z,1.53
2019-01-30T19:19:20.026Z,1.63
2019-01-30T19:21:50.371Z,1.47
2019-01-30T19:24:20.625Z,2.40
2019-01-30T19:26:50.970Z,1.83
2019-01-30T19:29:21.965Z,1.50
2019-01-30T19:31:53.240Z,1.40
2019-01-30T19:34:23.839Z,3.42
2019-01-30T19:37:03.182Z,2.70
2019-01-30T19:39:28.577Z,2.13
2019-01-30T19:41:59.599Z,2.02
2019-01-30T19:44:30.633Z,2.37
2019-01-30T19:47:01.636Z,2.33
2019-01-30T19:49:31.885Z,1.40
2019-01-30T19:52:02.894Z,4.40
2019-01-30T19:54:33.237Z,1.23
2019-01-30T19:57:03.849Z,2.33
2019-01-30T19:59:35.665Z,5.70
2019-01-30T20:02:06.203Z,2.03
2019-01-30T20:04:36.443Z,3.43
2019-01-30T20:07:14.429Z,2.33
2019-01-30T20:09:39.513Z,1.60
2019-01-30T20:12:09.953Z,1.20
2019-01-30T20:14:40.261Z,2.53
2019-01-30T20:17:10.518Z,1.63
2019-01-30T20:19:40.700Z,4.30
2019-01-30T20:22:11.090Z,5.10
2019-01-30T20:24:42.292Z,2.47
2019-01-30T20:27:13.444Z,1.30
2019-01-30T20:29:47.023Z,2.50
2019-01-30T20:32:17.446Z,3.00
2019-01-30T20:34:47.846Z,6.13
2019-01-30T20:37:25.920Z,2.63
2019-01-30T20:39:51.142Z,3.47
2019-01-30T20:42:22.358Z,1.40
2019-01-30T20:44:52.606Z,5.80
